Time;durP1;ratioP1;P1;durP2;ratioP2;P2;SDS_P1;SDS_P2;PMS_P1;PMS_P2;Temp;Humidity;BMP_temperature;BMP_pressure;BME280_temperature;BME280_humidity;BME280_pressure;Samples;Min_cycle;Max_cycle;Signal;HPM_P1;HPM_P2
2021/10/27 00:02:11;;;;;;;14.73;7.93;;;;;;;-144.43;100.00;64487.81;5013004;28;20075;-54
2021/10/27 00:04:37;;;;;;;12.82;7.88;;;;;;;-144.43;100.00;64487.81;4995246;28;20678;-55
2021/10/27 00:07:08;;;;;;;12.82;7.70;;;;;;;-144.43;100.00;64487.81;5012457;28;20033;-57
2021/10/27 00:09:34;;;;;;;13.77;8.93;;;;;;;-144.43;100.00;64487.81;5005773;28;20109;-54
2021/10/27 00:12:08;;;;;;;12.88;8.07;;;;;;;-144.43;100.00;64487.81;5003893;28;20110;-54
2021/10/27 00:14:43;;;;;;;12.77;7.63;;;;;;;-144.43;100.00;64487.81;4995359;28;20053;-53
2021/10/27 00:17:09;;;;;;;11.85;7.72;;;;;;;-144.43;100.00;64487.81;4995114;28;20033;-54
2021/10/27 00:19:34;;;;;;;13.02;7.95;;;;;;;-144.43;100.00;64487.81;4994963;28;20034;-53
2021/10/27 00:21:59;;;;;;;11.50;7.20;;;;;;;-144.43;100.00;64487.81;5001154;28;20030;-59
2021/10/27 00:24:25;;;;;;;10.98;6.95;;;;;;;-144.43;100.00;64487.81;4994737;28;20033;-57
2021/10/27 00:26:50;;;;;;;11.73;7.18;;;;;;;-144.43;100.00;64487.81;5012498;28;20030;-56
2021/10/27 00:29:16;;;;;;;12.13;7.28;;;;;;;-144.43;100.00;64487.81;4995125;28;20041;-57
2021/10/27 00:31:44;;;;;;;12.98;7.15;;;;;;;-144.43;100.00;64487.81;4995040;28;20026;-57
2021/10/27 00:34:10;;;;;;;11.30;6.68;;;;;;;-144.43;100.00;64487.81;5012206;28;20026;-59
2021/10/27 00:36:39;;;;;;;12.65;7.25;;;;;;;-144.43;100.00;64487.81;5012289;28;20022;-55
2021/10/27 00:39:04;;;;;;;15.80;7.80;;;;;;;-144.43;100.00;64487.81;5011900;28;20712;-58
2021/10/27 00:41:33;;;;;;;10.73;6.85;;;;;;;-144.43;100.00;64487.81;4994895;28;20083;-54
2021/10/27 00:43:58;;;;;;;12.25;7.30;;;;;;;-144.43;100.00;64487.81;4994819;28;20432;-57
2021/10/27 00:46:25;;;;;;;11.30;7.22;;;;;;;-144.43;100.00;64487.81;5003275;28;20105;-56
2021/10/27 00:48:53;;;;;;;10.35;7.03;;;;;;;-144.43;100.00;64487.81;5011674;28;20172;-54
2021/10/27 00:51:20;;;;;;;10.85;7.03;;;;;;;-144.43;100.00;64487.81;4994677;28;20029;-57
2021/10/27 00:54:09;;;;;;;9.93;6.95;;;;;;;-144.43;100.00;64487.81;4993487;28;20042;-57
2021/10/27 00:56:35;;;;;;;11.35;7.20;;;;;;;-144.43;100.00;64487.81;5012054;28;20120;-56
2021/10/27 00:59:01;;;;;;;9.75;6.50;;;;;;;-144.43;100.00;64487.81;5011654;28;20036;-54
2021/10/27 01:01:26;;;;;;;12.13;7.32;;;;;;;-144.43;100.00;64487.81;4974617;28;20029;-53
2021/10/27 01:03:52;;;;;;;10.32;6.65;;;;;;;-144.43;100.00;64487.81;5003170;28;20077;-53
2021/10/27 01:06:17;;;;;;;9.55;6.88;;;;;;;-144.43;100.00;64487.81;4994343;28;20113;-58
2021/10/27 01:08:48;;;;;;;11.50;7.15;;;;;;;-144.43;100.00;64487.81;4977644;28;20026;-52
2021/10/27 01:11:16;;;;;;;12.23;7.20;;;;;;;-144.43;100.00;64487.81;4994570;28;20037;-52
2021/10/27 01:13:42;;;;;;;12.23;7.40;;;;;;;-144.43;100.00;64487.81;4993911;28;20033;-53
2021/10/27 01:16:07;;;;;;;9.80;7.10;;;;;;;-144.43;100.00;64487.81;4975490;28;20030;-54
2021/10/27 01:18:36;;;;;;;12.68;8.40;;;;;;;-144.43;100.00;64487.81;5011508;28;20037;-58
2021/10/27 01:21:11;;;;;;;11.20;7.18;;;;;;;-144.43;100.00;64487.81;5011312;28;20492;-60
2021/10/27 01:23:37;;;;;;;10.50;7.22;;;;;;;-144.43;100.00;64487.81;4977479;28;20038;-58
2021/10/27 01:26:09;;;;;;;11.20;7.13;;;;;;;-144.43;100.00;64487.81;5011219;28;20022;-58
2021/10/27 01:28:39;;;;;;;12.40;7.32;;;;;;;-144.43;100.00;64487.81;4977748;28;20373;-57
2021/10/27 01:31:08;;;;;;;11.73;7.43;;;;;;;-144.43;100.00;64487.81;4993917;28;20030;-57
2021/10/27 01:33:37;;;;;;;10.80;7.25;;;;;;;-144.43;100.00;64487.81;4993884;28;20026;-55
2021/10/27 01:36:04;;;;;;;11.32;7.72;;;;;;;-144.43;100.00;64487.81;5011235;28;20030;-55
2021/10/27 01:38:33;;;;;;;16.65;8.15;;;;;;;-144.43;100.00;64487.81;5011568;28;20030;-57
2021/10/27 01:40:58;;;;;;;11.90;7.32;;;;;;;-144.43;100.00;64487.81;4977938;28;20566;-58
2021/10/27 01:43:27;;;;;;;13.50;7.38;;;;;;;-144.43;100.00;64487.81;4993683;28;20061;-58
2021/10/27 01:45:53;;;;;;;11.13;7.10;;;;;;;-144.43;100.00;64487.81;5010878;28;20079;-57
2021/10/27 01:48:18;;;;;;;11.77;7.47;;;;;;;-144.43;100.00;64487.81;4974656;28;20034;-56
2021/10/27 01:50:44;;;;;;;9.88;6.82;;;;;;;-144.43;100.00;64487.81;4989457;28;20091;-56
2021/10/27 01:53:11;;;;;;;16.45;7.88;;;;;;;-144.43;100.00;64487.81;4993728;28;20025;-58
2021/10/27 01:55:43;;;;;;;20.58;6.95;;;;;;;-144.43;100.00;64487.81;4973818;28;20677;-56
2021/10/27 01:58:11;;;;;;;22.08;6.68;;;;;;;-144.43;100.00;64487.81;4974163;28;20034;-58
2021/10/27 02:00:36;;;;;;;19.27;5.88;;;;;;;-144.43;100.00;64487.81;4991393;28;20038;-58
2021/10/27 02:03:05;;;;;;;44.33;6.60;;;;;;;-144.43;100.00;64487.81;4974215;28;20023;-55
2021/10/27 02:05:33;;;;;;;50.30;6.80;;;;;;;-144.43;100.00;64487.81;4994901;28;20088;-58
2021/10/27 02:07:58;;;;;;;30.13;5.32;;;;;;;-144.43;100.00;64487.81;4962079;28;20480;-58
2021/10/27 02:10:26;;;;;;;68.60;6.15;;;;;;;-144.43;100.00;64487.81;4978018;28;20042;-56
2021/10/27 02:12:55;;;;;;;67.78;5.68;;;;;;;-144.43;100.00;64487.81;4995705;28;20113;-60
2021/10/27 02:15:20;;;;;;;66.72;6.05;;;;;;;-144.43;100.00;64487.81;4977637;28;20389;-59
2021/10/27 02:17:45;;;;;;;82.20;6.03;;;;;;;-144.43;100.00;64487.81;4995656;28;20026;-60
2021/10/27 02:20:14;;;;;;;101.47;6.78;;;;;;;-144.43;100.00;64487.81;4995059;28;20069;-57
2021/10/27 02:22:41;;;;;;;70.55;6.93;;;;;;;-144.43;100.00;64487.81;4995261;28;20117;-60
2021/10/27 02:25:07;;;;;;;47.45;6.05;;;;;;;-144.43;100.00;64487.81;4994865;28;20022;-59
2021/10/27 02:27:32;;;;;;;44.75;5.82;;;;;;;-144.43;100.00;64487.81;4995440;28;20500;-60
2021/10/27 02:29:58;;;;;;;47.47;6.15;;;;;;;-144.43;100.00;64487.81;4977698;28;20027;-61
2021/10/27 02:32:29;;;;;;;48.83;5.60;;;;;;;-144.43;100.00;64487.81;4978376;28;20069;-59
2021/10/27 02:34:55;;;;;;;17.45;5.85;;;;;;;-144.43;100.00;64487.81;4976868;28;20421;-61
2021/10/27 02:37:20;;;;;;;16.33;5.78;;;;;;;-144.43;100.00;64487.81;4994949;28;20084;-57
2021/10/27 02:39:46;;;;;;;13.27;5.15;;;;;;;-144.43;100.00;64487.81;4995253;28;20023;-61
2021/10/27 02:42:15;;;;;;;25.45;5.40;;;;;;;-144.43;100.00;64487.81;4994919;28;20508;-59
2021/10/27 02:44:40;;;;;;;11.18;4.82;;;;;;;-144.43;100.00;64487.81;4977045;28;20026;-58
2021/10/27 02:47:06;;;;;;;13.65;5.25;;;;;;;-144.43;100.00;64487.81;4994964;28;20830;-59
2021/10/27 02:49:31;;;;;;;19.85;5.07;;;;;;;-144.43;100.00;64487.81;4977147;28;20044;-58
2021/10/27 02:52:04;;;;;;;16.00;4.57;;;;;;;-144.43;100.00;64487.81;4987478;28;20502;-60
2021/10/27 02:54:29;;;;;;;9.07;4.40;;;;;;;-144.43;100.00;64487.81;5005207;28;20046;-60
2021/10/27 02:57:00;;;;;;;13.48;4.85;;;;;;;-144.43;100.00;64487.81;5013880;28;20639;-58
2021/10/27 02:59:28;;;;;;;5.78;4.43;;;;;;;-144.43;100.00;64487.81;5014072;28;20087;-58
2021/10/27 03:01:53;;;;;;;5.05;4.00;;;;;;;-144.43;100.00;64487.81;5014339;28;20025;-58
2021/10/27 03:04:18;;;;;;;5.07;4.28;;;;;;;-144.43;100.00;64487.81;4979957;28;20032;-60
2021/10/27 03:06:46;;;;;;;4.45;3.75;;;;;;;-144.43;100.00;64487.81;4996288;28;20026;-59
2021/10/27 03:09:11;;;;;;;5.43;3.78;;;;;;;-144.43;100.00;64487.81;5008009;28;20505;-58
2021/10/27 03:11:40;;;;;;;4.60;4.13;;;;;;;-144.43;100.00;64487.81;4996335;28;20156;-60
2021/10/27 03:14:07;;;;;;;5.45;4.07;;;;;;;-144.43;100.00;64487.81;5013819;28;20489;-58
2021/10/27 03:16:32;;;;;;;5.38;3.95;;;;;;;-144.43;100.00;64487.81;4994910;28;20491;-60
2021/10/27 03:19:00;;;;;;;6.75;4.57;;;;;;;-144.43;100.00;64487.81;5013508;28;20034;-58
2021/10/27 03:21:26;;;;;;;5.50;3.95;;;;;;;-144.43;100.00;64487.81;4996328;28;20021;-60
2021/10/27 03:24:01;;;;;;;6.65;4.25;;;;;;;-144.43;100.00;64487.81;4996107;28;20033;-61
2021/10/27 03:26:26;;;;;;;5.30;3.85;;;;;;;-144.43;100.00;64487.81;4995920;28;20042;-57
2021/10/27 03:28:55;;;;;;;7.40;4.40;;;;;;;-144.43;100.00;64487.81;4980090;28;20057;-58
2021/10/27 03:31:20;;;;;;;12.70;5.63;;;;;;;-144.43;100.00;64487.81;5013337;28;20034;-57
2021/10/27 03:33:46;;;;;;;13.93;5.57;;;;;;;-144.43;100.00;64487.81;4979842;28;20036;-57
2021/10/27 03:36:14;;;;;;;22.02;6.25;;;;;;;-144.43;100.00;64487.81;5013298;28;20499;-58
2021/10/27 03:38:42;;;;;;;9.90;5.25;;;;;;;-144.43;100.00;64487.81;5013668;28;20097;-58
2021/10/27 03:41:08;;;;;;;11.00;5.93;;;;;;;-144.43;100.00;64487.81;4995504;28;20044;-60
2021/10/27 03:43:36;;;;;;;9.77;5.18;;;;;;;-144.43;100.00;64487.81;5013072;28;20030;-59
2021/10/27 03:46:01;;;;;;;7.68;4.65;;;;;;;-144.43;100.00;64487.81;5013105;28;20473;-58
2021/10/27 03:48:29;;;;;;;6.45;4.20;;;;;;;-144.43;100.00;64487.81;5013231;28;20137;-60
2021/10/27 03:50:59;;;;;;;9.80;5.05;;;;;;;-144.43;100.00;64487.81;5013148;28;20029;-59
2021/10/27 03:53:27;;;;;;;13.15;4.65;;;;;;;-144.43;100.00;64487.81;4979314;28;20032;-53
2021/10/27 03:55:54;;;;;;;18.17;5.60;;;;;;;-144.43;100.00;64487.81;5012858;28;20022;-54
2021/10/27 03:58:20;;;;;;;16.13;6.35;;;;;;;-144.43;100.00;64487.81;5012895;28;20028;-61
2021/10/27 04:00:45;;;;;;;10.48;5.70;;;;;;;-144.43;100.00;64487.81;4995426;28;20461;-60
2021/10/27 04:03:21;;;;;;;18.50;5.05;;;;;;;-144.43;100.00;64487.81;4995057;28;20034;-59
2021/10/27 04:05:46;;;;;;;6.90;4.72;;;;;;;-144.43;100.00;64487.81;4995514;28;20029;-60
2021/10/27 04:08:15;;;;;;;9.90;5.32;;;;;;;-144.43;100.00;64487.81;5013138;28;20080;-58
2021/10/27 04:10:47;;;;;;;6.63;4.93;;;;;;;-144.43;100.00;64487.81;4995228;28;20049;-61
2021/10/27 04:13:17;;;;;;;9.38;4.32;;;;;;;-144.43;100.00;64487.81;4995838;28;20096;-60
2021/10/27 04:15:43;;;;;;;6.53;4.90;;;;;;;-144.43;100.00;64487.81;5012481;28;20048;-60
2021/10/27 04:18:09;;;;;;;7.72;5.03;;;;;;;-144.43;100.00;64487.81;5012927;28;20488;-56
2021/10/27 04:20:35;;;;;;;12.95;5.15;;;;;;;-144.43;100.00;64487.81;5012568;28;20037;-60
2021/10/27 04:23:04;;;;;;;7.43;5.30;;;;;;;-144.43;100.00;64487.81;5012200;28;20406;-58
2021/10/27 04:25:29;;;;;;;7.97;5.07;;;;;;;-144.43;100.00;64487.81;4994230;28;20500;-57
2021/10/27 04:27:55;;;;;;;12.88;5.15;;;;;;;-144.43;100.00;64487.81;4994968;28;20037;-57
2021/10/27 04:30:20;;;;;;;13.60;6.32;;;;;;;-144.43;100.00;64487.81;4994657;28;20080;-58
2021/10/27 04:32:46;;;;;;;11.13;6.95;;;;;;;-144.43;100.00;64487.81;5012859;28;20036;-58
2021/10/27 04:35:11;;;;;;;9.90;7.00;;;;;;;-144.43;100.00;64487.81;5012221;28;20060;-59
2021/10/27 04:37:44;;;;;;;28.98;6.72;;;;;;;-144.43;100.00;64487.81;4975816;28;20830;-61
2021/10/27 04:40:12;;;;;;;17.35;6.65;;;;;;;-144.43;100.00;64487.81;4995734;28;20084;-59
2021/10/27 04:42:41;;;;;;;16.10;5.82;;;;;;;-144.43;100.00;64487.81;4994904;28;20029;-58
2021/10/27 04:45:13;;;;;;;18.65;6.53;;;;;;;-144.43;100.00;64487.81;5003198;28;20029;-57
2021/10/27 04:47:42;;;;;;;18.20;6.70;;;;;;;-144.43;100.00;64487.81;4994835;28;20058;-59
2021/10/27 04:50:09;;;;;;;19.08;6.22;;;;;;;-144.43;100.00;64487.81;4994520;28;20030;-56
2021/10/27 04:52:35;;;;;;;31.60;5.60;;;;;;;-144.43;100.00;64487.81;4978252;28;20100;-53
2021/10/27 04:55:00;;;;;;;24.33;6.35;;;;;;;-144.43;100.00;64487.81;5013306;23;20603;-65
2021/10/27 04:57:29;;;;;;;16.75;5.40;;;;;;;-144.43;100.00;64487.81;4994311;28;20025;-65
2021/10/27 04:59:54;;;;;;;14.93;5.38;;;;;;;-144.43;100.00;64487.81;5011582;28;20050;-65
2021/10/27 05:02:20;;;;;;;21.15;6.28;;;;;;;-144.43;100.00;64487.81;4994218;28;20496;-65
2021/10/27 05:04:51;;;;;;;17.30;5.47;;;;;;;-144.43;100.00;64487.81;4994107;28;20029;-65
2021/10/27 05:07:18;;;;;;;26.98;5.75;;;;;;;-144.43;100.00;64487.81;4994571;28;20061;-64
2021/10/27 05:09:43;;;;;;;18.73;5.25;;;;;;;-144.43;100.00;64487.81;4994811;28;20033;-64
2021/10/27 05:12:10;;;;;;;24.55;5.22;;;;;;;-144.43;100.00;64487.81;4994219;28;20396;-65
2021/10/27 05:14:37;;;;;;;95.25;6.38;;;;;;;-144.43;100.00;64487.81;4993710;28;20021;-64
2021/10/27 05:17:13;;;;;;;62.38;5.10;;;;;;;-144.43;100.00;64487.81;5011729;28;20084;-65
2021/10/27 05:19:42;;;;;;;71.55;5.82;;;;;;;-144.43;100.00;64487.81;5011798;28;20034;-64
2021/10/27 05:22:09;;;;;;;63.92;5.50;;;;;;;-144.43;100.00;64487.81;4984429;28;20499;-63
2021/10/27 05:24:38;;;;;;;48.08;4.30;;;;;;;-144.43;100.00;64487.81;4993601;28;20029;-64
2021/10/27 05:27:04;;;;;;;39.50;4.32;;;;;;;-144.43;100.00;64487.81;4994253;28;20080;-65
2021/10/27 05:29:30;;;;;;;69.95;4.85;;;;;;;-144.43;100.00;64487.81;4994022;28;20029;-64
2021/10/27 05:31:56;;;;;;;47.42;4.43;;;;;;;-144.43;100.00;64487.81;4967274;28;20085;-64
2021/10/27 05:34:22;;;;;;;54.47;4.43;;;;;;;-144.43;100.00;64487.81;5007330;28;20112;-64
2021/10/27 05:36:47;;;;;;;68.18;4.68;;;;;;;-144.43;100.00;64487.81;5009102;28;20030;-60
2021/10/27 05:39:14;;;;;;;72.32;4.47;;;;;;;-144.43;100.00;64487.81;5008393;28;20829;-65
2021/10/27 05:41:48;;;;;;;64.68;4.88;;;;;;;-144.43;100.00;64487.81;4990153;28;20057;-65
2021/10/27 05:44:16;;;;;;;37.97;4.25;;;;;;;-144.43;100.00;64487.81;4975811;28;20029;-65
2021/10/27 05:46:42;;;;;;;31.25;3.55;;;;;;;-144.43;100.00;64487.81;4985200;28;20448;-65
2021/10/27 05:51:47;;;;;;;55.38;3.97;;;;;;;-144.43;100.00;64487.81;5004202;28;20033;-65
2021/10/27 05:57:03;;;;;;;73.57;4.28;;;;;;;-144.43;100.00;64487.81;5003237;28;20040;-65
2021/10/27 05:59:28;;;;;;;29.73;3.55;;;;;;;-144.43;100.00;64487.81;5011079;28;20091;-65
2021/10/27 06:01:54;;;;;;;67.97;4.25;;;;;;;-144.43;100.00;64487.81;4988607;28;20030;-63
2021/10/27 06:04:19;;;;;;;89.18;5.63;;;;;;;-144.43;100.00;64487.81;4990587;28;20029;-64
2021/10/27 06:06:45;;;;;;;88.47;4.78;;;;;;;-144.43;100.00;64487.81;4985860;28;20064;-65
2021/10/27 06:09:12;;;;;;;84.00;4.80;;;;;;;-144.43;100.00;64487.81;5009341;28;20473;-64
2021/10/27 06:11:37;;;;;;;58.97;5.15;;;;;;;-144.43;100.00;64487.81;5007283;28;20033;-64
2021/10/27 06:14:03;;;;;;;89.30;4.80;;;;;;;-144.43;100.00;64487.81;4985253;28;20400;-65
2021/10/27 06:16:29;;;;;;;64.85;5.25;;;;;;;-144.43;100.00;64487.81;5011051;28;20021;-63
2021/10/27 06:18:58;;;;;;;140.75;7.03;;;;;;;-144.43;100.00;64487.81;4993540;28;20080;-64
2021/10/27 06:21:24;;;;;;;108.97;6.22;;;;;;;-144.43;100.00;64487.81;5008490;28;20029;-63
2021/10/27 06:23:50;;;;;;;74.00;5.53;;;;;;;-144.43;100.00;64487.81;4989137;28;20022;-64
2021/10/27 06:26:21;;;;;;;43.85;5.13;;;;;;;-144.43;100.00;64487.81;4987422;28;20026;-63
2021/10/27 06:29:10;;;;;;;23.65;5.13;;;;;;;-144.43;100.00;64487.81;4998563;28;20083;-64
2021/10/27 06:31:42;;;;;;;46.40;5.93;;;;;;;-144.43;100.00;64487.81;5003061;28;20501;-63
2021/10/27 06:47:34;;;;;;;14.48;8.20;;;;;;;-144.43;100.00;64487.81;4996240;28;20036;-64
2021/10/27 06:50:00;;;;;;;23.13;8.35;;;;;;;-144.43;100.00;64487.81;4993296;28;20104;-63
2021/10/27 06:52:25;;;;;;;20.55;8.65;;;;;;;-144.43;100.00;64487.81;4996779;28;20106;-64
2021/10/27 06:54:52;;;;;;;23.10;8.38;;;;;;;-144.43;100.00;64487.81;5013718;28;20050;-64
2021/10/27 06:57:22;;;;;;;14.27;8.45;;;;;;;-144.43;100.00;64487.81;5014054;28;20500;-63
2021/10/27 06:59:49;;;;;;;13.68;7.75;;;;;;;-144.43;100.00;64487.81;5014017;28;20053;-62
2021/10/27 07:05:06;;;;;;;12.32;8.68;;;;;;;-144.43;100.00;64487.81;5012238;28;20503;-64
2021/10/27 07:15:36;;;;;;;17.83;9.13;;;;;;;-144.43;100.00;64487.81;4997948;28;20033;-63
2021/10/27 07:18:02;;;;;;;13.02;8.48;;;;;;;-144.43;100.00;64487.81;5013998;28;20030;-64
2021/10/27 07:20:28;;;;;;;11.00;8.15;;;;;;;-144.43;100.00;64487.81;4980037;28;20038;-63
2021/10/27 07:22:57;;;;;;;16.30;9.13;;;;;;;-144.43;100.00;64487.81;5014169;28;20385;-64
2021/10/27 07:25:22;;;;;;;13.10;8.85;;;;;;;-144.43;100.00;64487.81;5013314;28;20022;-64
2021/10/27 07:27:50;;;;;;;17.52;8.98;;;;;;;-144.43;100.00;64487.81;4996427;28;20378;-62
2021/10/27 07:30:16;;;;;;;14.40;8.70;;;;;;;-144.43;100.00;64487.81;4996292;28;20026;-64
2021/10/27 07:32:41;;;;;;;15.70;9.15;;;;;;;-144.43;100.00;64487.81;5013778;28;20071;-64
2021/10/27 07:42:57;;;;;;;14.82;9.00;;;;;;;-144.43;100.00;64487.81;4997050;28;20037;-64
2021/10/27 07:45:25;;;;;;;17.42;8.75;;;;;;;-144.43;100.00;64487.81;5001774;28;20079;-63
2021/10/27 07:47:50;;;;;;;15.80;8.80;;;;;;;-144.43;100.00;64487.81;5013589;28;20038;-64
2021/10/27 07:50:15;;;;;;;14.68;8.93;;;;;;;-144.43;100.00;64487.81;4996106;28;20055;-64
2021/10/27 07:52:41;;;;;;;14.32;8.45;;;;;;;-144.43;100.00;64487.81;5013404;28;20022;-63
2021/10/27 07:55:07;;;;;;;17.85;8.95;;;;;;;-144.43;100.00;64487.81;4995101;28;20764;-64
2021/10/27 07:57:32;;;;;;;14.40;9.48;;;;;;;-144.43;100.00;64487.81;5013188;28;20033;-64
2021/10/27 07:59:57;;;;;;;13.73;9.15;;;;;;;-144.43;100.00;64487.81;4992475;28;20026;-64
2021/10/27 08:02:39;;;;;;;14.10;8.75;;;;;;;-144.43;100.00;64487.81;4992020;28;20028;-64
2021/10/27 08:05:05;;;;;;;14.07;7.85;;;;;;;-144.43;100.00;64487.81;4994826;28;20463;-64
2021/10/27 08:07:30;;;;;;;16.83;9.05;;;;;;;-144.43;100.00;64487.81;4979149;28;20165;-64
2021/10/27 08:09:58;;;;;;;16.05;9.35;;;;;;;-144.43;100.00;64487.81;5012664;28;20026;-64
2021/10/27 08:12:24;;;;;;;13.35;8.90;;;;;;;-144.43;100.00;64487.81;5012735;28;20026;-63
2021/10/27 08:14:50;;;;;;;14.18;9.15;;;;;;;-144.43;100.00;64487.81;5012340;28;20017;-64
2021/10/27 08:17:15;;;;;;;14.38;8.82;;;;;;;-144.43;100.00;64487.81;5004927;28;20076;-64
2021/10/27 08:19:41;;;;;;;12.15;8.70;;;;;;;-144.43;100.00;64487.81;5009289;28;20103;-64
2021/10/27 08:22:15;;;;;;;13.80;9.02;;;;;;;-144.43;100.00;64487.81;5007567;28;20756;-64
2021/10/27 08:24:41;;;;;;;14.82;9.82;;;;;;;-144.43;100.00;64487.81;4991390;28;20036;-64
2021/10/27 08:27:19;;;;;;;13.93;9.10;;;;;;;-144.43;100.00;64487.81;5009838;28;20029;-62
2021/10/27 08:29:47;;;;;;;14.10;9.15;;;;;;;-144.43;100.00;64487.81;5008820;28;20017;-64
2021/10/27 08:35:05;;;;;;;15.02;9.40;;;;;;;-144.43;100.00;64487.81;4976469;28;20042;-63
2021/10/27 08:37:30;;;;;;;14.25;9.57;;;;;;;-144.43;100.00;64487.81;4992623;28;20033;-64
2021/10/27 08:39:55;;;;;;;13.30;9.25;;;;;;;-144.43;100.00;64487.81;5010413;28;20022;-64
2021/10/27 08:42:21;;;;;;;12.50;8.68;;;;;;;-144.43;100.00;64487.81;4992721;28;20053;-64
2021/10/27 08:44:46;;;;;;;13.82;10.23;;;;;;;-144.43;100.00;64487.81;4976970;28;20030;-61
2021/10/27 08:47:12;;;;;;;12.77;9.55;;;;;;;-144.43;100.00;64487.81;5004281;28;20052;-64
2021/10/27 08:49:38;;;;;;;13.82;9.38;;;;;;;-144.43;100.00;64487.81;5009620;28;20061;-64
2021/10/27 08:52:07;;;;;;;14.23;9.30;;;;;;;-144.43;100.00;64487.81;4991420;28;20026;-65
2021/10/27 08:54:33;;;;;;;13.27;9.43;;;;;;;-144.43;100.00;64487.81;5009435;28;20026;-64
2021/10/27 08:57:08;;;;;;;15.85;9.70;;;;;;;-144.43;100.00;64487.81;5009945;28;20040;-62
2021/10/27 09:02:56;;;;;;;13.55;8.88;;;;;;;-144.43;100.00;64487.81;5010863;28;20113;-65
2021/10/27 09:05:10;;;;;;;15.63;9.93;;;;;;;-144.43;100.00;64487.81;4991579;28;20061;-64
2021/10/27 09:08:01;;;;;;;15.00;9.85;;;;;;;-144.43;100.00;64487.81;4993106;28;20139;-65
2021/10/27 09:55:44;;;;;;;16.30;10.45;;;;;;;-144.43;100.00;64487.81;4995501;28;20107;-65
2021/10/27 10:04:05;;;;;;;13.15;9.40;;;;;;;-144.43;100.00;64487.81;4995369;28;20037;-63
2021/10/27 10:06:32;;;;;;;14.45;9.32;;;;;;;-144.43;100.00;64487.81;5008478;28;20548;-65
2021/10/27 10:08:58;;;;;;;15.07;9.45;;;;;;;-144.43;100.00;64487.81;4971200;28;20474;-65
2021/10/27 10:11:27;;;;;;;13.77;9.10;;;;;;;-144.43;100.00;64487.81;4972922;28;20022;-64
2021/10/27 10:14:02;;;;;;;15.63;9.80;;;;;;;-144.43;100.00;64487.81;5006020;28;20021;-65
2021/10/27 10:16:33;;;;;;;14.75;9.38;;;;;;;-144.43;100.00;64487.81;5001879;28;20524;-65
2021/10/27 10:19:09;;;;;;;15.40;9.27;;;;;;;-144.43;100.00;64487.81;5003635;28;20477;-63
2021/10/27 10:21:35;;;;;;;16.17;9.75;;;;;;;-144.43;100.00;64487.81;4988460;28;20396;-64
2021/10/27 10:24:16;;;;;;;17.90;10.15;;;;;;;-144.43;100.00;64487.81;5010251;28;20038;-65
2021/10/27 10:26:42;;;;;;;15.60;9.60;;;;;;;-144.43;100.00;64487.81;5010158;28;20038;-65
2021/10/27 10:29:08;;;;;;;14.75;9.45;;;;;;;-144.43;100.00;64487.81;4996281;28;20026;-64
2021/10/27 10:31:36;;;;;;;15.60;10.15;;;;;;;-144.43;100.00;64487.81;4980565;28;20113;-62
2021/10/27 10:34:08;;;;;;;12.88;9.15;;;;;;;-144.43;100.00;64487.81;5009262;28;20093;-62
2021/10/27 10:36:38;;;;;;;12.50;9.45;;;;;;;-144.43;100.00;64487.81;4989954;28;20027;-64
2021/10/27 10:56:09;;;;;;;14.82;9.60;;;;;;;-144.43;100.00;64487.81;5026849;23;20120;-61
2021/10/27 11:41:28;;;;;;;16.25;11.45;;;;;;;-144.43;100.00;64487.81;5033124;28;20541;-60
2021/10/27 11:44:31;;;;;;;18.38;10.32;;;;;;;-144.43;100.00;64487.81;5031971;28;20395;-60
2021/10/27 11:46:58;;;;;;;16.55;10.48;;;;;;;-144.43;100.00;64487.81;5030892;28;20496;-58
2021/10/27 11:52:11;;;;;;;15.30;10.43;;;;;;;-144.43;100.00;64487.81;5032070;28;20086;-59
2021/10/27 11:54:38;;;;;;;14.43;9.82;;;;;;;-144.43;100.00;64487.81;5031404;28;20057;-58
2021/10/27 11:57:04;;;;;;;17.23;10.75;;;;;;;-144.43;100.00;64487.81;5007805;28;20069;-60
2021/10/27 11:59:41;;;;;;;15.93;10.15;;;;;;;-144.43;100.00;64487.81;4994798;28;20414;-61
2021/10/27 12:02:07;;;;;;;13.85;10.07;;;;;;;-144.43;100.00;64487.81;5012168;28;20520;-61
2021/10/27 12:04:33;;;;;;;14.95;9.80;;;;;;;-144.43;100.00;64487.81;4963420;28;20061;-60
2021/10/27 12:07:24;;;;;;;16.60;10.55;;;;;;;-144.43;100.00;64487.81;5007438;28;20114;-61
2021/10/27 12:10:05;;;;;;;12.93;9.25;;;;;;;-144.43;100.00;64487.81;5012928;28;20033;-61
2021/10/27 12:15:31;;;;;;;14.80;9.82;;;;;;;-144.43;100.00;64487.81;5012425;28;20033;-58
2021/10/27 12:18:12;;;;;;;14.45;10.05;;;;;;;-144.43;100.00;64487.81;5008032;28;20038;-61
2021/10/27 12:20:57;;;;;;;13.85;9.35;;;;;;;-144.43;100.00;64487.81;4982214;28;20060;-61
2021/10/27 12:23:49;;;;;;;16.65;10.20;;;;;;;-144.43;100.00;64487.81;4994830;28;20058;-60
2021/10/27 12:26:19;;;;;;;13.85;9.65;;;;;;;-144.43;100.00;64487.81;5012807;28;20034;-61
2021/10/27 12:28:44;;;;;;;17.27;10.40;;;;;;;-144.43;100.00;64487.81;5007885;28;20033;-61
2021/10/27 12:31:20;;;;;;;17.75;10.10;;;;;;;-144.43;100.00;64487.81;4988438;28;20476;-61
2021/10/27 12:33:50;;;;;;;17.65;9.60;;;;;;;-144.43;100.00;64487.81;4994941;28;20479;-60
2021/10/27 12:36:42;;;;;;;15.65;9.25;;;;;;;-144.43;100.00;64487.81;5012542;28;20037;-61
2021/10/27 12:39:35;;;;;;;16.17;10.35;;;;;;;-144.43;100.00;64487.81;5003614;28;20048;-60
2021/10/27 12:42:11;;;;;;;13.80;9.70;;;;;;;-144.43;100.00;64487.81;5031978;28;20087;-59
2021/10/27 12:44:46;;;;;;;13.20;9.43;;;;;;;-144.43;100.00;64487.81;5031477;28;20043;-61
2021/10/27 12:47:27;;;;;;;17.13;10.32;;;;;;;-144.43;100.00;64487.81;5015418;28;20041;-61
2021/10/27 12:50:13;;;;;;;16.95;9.55;;;;;;;-144.43;100.00;64487.81;5030778;28;20132;-58
2021/10/27 12:53:00;;;;;;;15.15;9.55;;;;;;;12.11;100.00;95285.69;5031878;28;20483;-61
2021/10/27 12:55:32;;;;;;;15.68;9.60;;;;;;;12.36;100.00;95284.84;5031735;28;20427;-61
2021/10/27 12:58:11;;;;;;;14.90;9.65;;;;;;;12.44;100.00;95274.34;4981542;28;20026;-61
2021/10/27 13:08:54;;;;;;;15.48;9.57;;;;;;;12.80;100.00;95164.06;5031760;28;20091;-57
2021/10/27 13:14:49;;;;;;;16.02;8.77;;;;;;;12.88;100.00;95133.13;4997906;28;20051;-61
2021/10/27 13:22:56;;;;;;;11.93;8.60;;;;;;;13.02;100.00;95120.66;5020673;28;20037;-59
2021/10/27 13:31:06;;;;;;;14.55;9.45;;;;;;;13.04;100.00;95135.44;4996556;28;20056;-58
2021/10/27 13:33:31;;;;;;;13.73;8.95;;;;;;;13.28;100.00;95148.22;4993615;28;20030;-59
2021/10/27 13:35:57;;;;;;;14.43;9.57;;;;;;;13.36;100.00;95158.41;4977897;28;20025;-59
2021/10/27 13:38:34;;;;;;;13.25;9.18;;;;;;;13.53;100.00;95179.50;5011442;28;20030;-59
2021/10/27 13:41:00;;;;;;;17.40;9.98;;;;;;;13.55;100.00;95182.72;5011584;28;20033;-61
2021/10/27 13:43:47;;;;;;;13.85;9.25;;;;;;;13.62;100.00;95194.78;4993213;28;20029;-61
2021/10/27 13:57:42;;;;;;;13.07;8.45;;;;;;;13.59;100.00;95243.00;4959099;28;20105;-60
2021/10/27 13:57:53;;;;;;;13.68;7.97;;;;;;;13.51;100.00;95289.31;5009230;28;20149;-59
2021/10/27 14:08:45;;;;;;;10.00;7.40;;;;;;;13.59;100.00;95346.06;5017271;28;20028;-60
2021/10/27 14:12:02;;;;;;;12.73;7.90;;;;;;;13.65;100.00;95354.91;5002273;28;20061;-58
2021/10/27 14:14:21;;;;;;;11.30;7.15;;;;;;;13.64;100.00;95372.13;4995101;28;20029;-61
2021/10/27 14:19:42;;;;;;;11.00;7.30;;;;;;;13.69;100.00;95404.44;5000515;28;20048;-59
2021/10/27 15:44:06;;;;;;;10.10;6.65;;;;;;;11.05;100.00;95447.91;4996019;28;20457;-58
2021/10/27 15:54:51;;;;;;;8.95;6.68;;;;;;;10.29;100.00;95455.34;4971209;28;20500;-61
2021/10/27 15:57:17;;;;;;;10.80;6.90;;;;;;;10.12;100.00;95464.25;4971675;28;20041;-62
2021/10/27 15:59:46;;;;;;;9.18;6.90;;;;;;;9.98;100.00;95478.28;4952828;28;20039;-59
2021/10/27 16:02:12;;;;;;;13.07;6.85;;;;;;;9.81;100.00;95481.03;4955687;28;20441;-54
2021/10/27 16:04:39;;;;;;;11.27;6.72;;;;;;;9.68;100.00;95494.81;4954740;28;20098;-53
2021/10/27 16:07:07;;;;;;;10.32;6.50;;;;;;;9.48;100.00;95498.03;4955014;28;20041;-53